LIC1107 LEVD-LEBA
Flight info
| Callsign | LIC1107 |
|---|---|
| Flight time | 0h 40m |
| Altitude | 33000 |
| Route | ORBIS N864 MOCEQ |
| Aircraft | A320/M-SDE3FGHIRWY/LB1 |
Departure
| Time | 2026-05-05 18:25 |
|---|---|
| Airport | Valladolid Airport (LEVD) |
Arrival
| Time | 2026-05-05 19:05 |
|---|---|
| Airport | Córdoba Airport (LEBA) |
| Time | Latitude | Longitude | Altitude | Speed | Heading |
|---|---|---|---|---|---|
| 2026-05-05 18:03 | 41.70681 | -4.84519 | 2784 ft | 0 kts | 295° |
| 2026-05-05 18:20 | 41.70684 | -4.84527 | 2754 ft | 5 kts | 300° |
| 2026-05-05 18:20 | 41.70712 | -4.84573 | 2787 ft | 9 kts | 313° |
| 2026-05-05 18:21 | 41.70764 | -4.84643 | 2784 ft | 12 kts | 315° |
| 2026-05-05 18:21 | 41.70833 | -4.84733 | 2784 ft | 15 kts | 316° |
| 2026-05-05 18:21 | 41.70914 | -4.84829 | 2784 ft | 17 kts | 332° |
| 2026-05-05 18:21 | 41.71034 | -4.84862 | 2781 ft | 19 kts | 352° |
| 2026-05-05 18:22 | 41.71134 | -4.84790 | 2779 ft | 18 kts | 46° |
| 2026-05-05 18:22 | 41.71225 | -4.84669 | 2779 ft | 20 kts | 44° |
| 2026-05-05 18:22 | 41.71324 | -4.84532 | 2777 ft | 16 kts | 45° |
| 2026-05-05 18:22 | 41.71401 | -4.84428 | 2778 ft | 17 kts | 45° |
| 2026-05-05 18:23 | 41.71492 | -4.84308 | 2779 ft | 20 kts | 44° |
| 2026-05-05 18:23 | 41.71594 | -4.84180 | 2783 ft | 20 kts | 45° |
| 2026-05-05 18:23 | 41.71669 | -4.84040 | 2782 ft | 14 kts | 85° |
| 2026-05-05 18:23 | 41.71605 | -4.83949 | 2780 ft | 14 kts | 174° |
| 2026-05-05 18:24 | 41.71525 | -4.84001 | 2785 ft | 14 kts | 227° |
| 2026-05-05 18:24 | 41.71365 | -4.84223 | 2780 ft | 67 kts | 226° |
| 2026-05-05 18:24 | 41.70878 | -4.84884 | 2782 ft | 129 kts | 225° |
| 2026-05-05 18:24 | 41.70131 | -4.85896 | 2835 ft | 169 kts | 227° |
| 2026-05-05 18:25 | 41.69294 | -4.86992 | 3468 ft | 167 kts | 228° |
| 2026-05-05 18:25 | 41.68738 | -4.87735 | 3965 ft | 168 kts | 229° |
| 2026-05-05 18:25 | 41.67648 | -4.89221 | 4802 ft | 173 kts | 230° |
| 2026-05-05 18:25 | 41.66769 | -4.90438 | 5139 ft | 193 kts | 229° |
| 2026-05-05 18:26 | 41.65787 | -4.91813 | 5413 ft | 217 kts | 228° |
| 2026-05-05 18:26 | 41.64474 | -4.93028 | 5798 ft | 246 kts | 203° |
| 2026-05-05 18:26 | 41.62698 | -4.93438 | 6297 ft | 272 kts | 185° |
| 2026-05-05 18:26 | 41.60775 | -4.93481 | 7076 ft | 280 kts | 182° |
| 2026-05-05 18:27 | 41.58819 | -4.93488 | 7970 ft | 283 kts | 182° |
| 2026-05-05 18:27 | 41.56838 | -4.93488 | 8855 ft | 286 kts | 182° |
| 2026-05-05 18:27 | 41.54833 | -4.93482 | 9750 ft | 290 kts | 182° |
| 2026-05-05 18:27 | 41.52784 | -4.93469 | 10334 ft | 304 kts | 182° |
| 2026-05-05 18:28 | 41.48281 | -4.92980 | 11038 ft | 344 kts | 165° |
| 2026-05-05 18:28 | 41.45972 | -4.92056 | 11733 ft | 349 kts | 165° |
| 2026-05-05 18:28 | 41.43638 | -4.91113 | 12466 ft | 353 kts | 165° |
| 2026-05-05 18:29 | 41.41275 | -4.90150 | 13212 ft | 357 kts | 165° |
| 2026-05-05 18:29 | 41.38889 | -4.89176 | 13916 ft | 361 kts | 165° |
| 2026-05-05 18:29 | 41.36476 | -4.88194 | 14574 ft | 364 kts | 165° |
| 2026-05-05 18:29 | 41.34038 | -4.87202 | 15203 ft | 368 kts | 165° |
| 2026-05-05 18:30 | 41.31573 | -4.86201 | 15829 ft | 372 kts | 165° |
| 2026-05-05 18:30 | 41.29079 | -4.85191 | 16440 ft | 377 kts | 165° |
| 2026-05-05 18:30 | 41.26559 | -4.84173 | 17059 ft | 381 kts | 165° |
| 2026-05-05 18:30 | 41.24007 | -4.83143 | 17693 ft | 385 kts | 165° |
| 2026-05-05 18:31 | 41.21433 | -4.82106 | 18316 ft | 389 kts | 166° |
| 2026-05-05 18:31 | 41.18827 | -4.81056 | 18852 ft | 394 kts | 166° |
| 2026-05-05 18:31 | 41.16185 | -4.79993 | 19382 ft | 399 kts | 166° |
| 2026-05-05 18:31 | 41.13506 | -4.78916 | 19921 ft | 405 kts | 167° |
| 2026-05-05 18:32 | 41.10791 | -4.77829 | 20447 ft | 410 kts | 167° |
| 2026-05-05 18:32 | 41.08040 | -4.76740 | 20952 ft | 416 kts | 168° |
| 2026-05-05 18:32 | 41.05250 | -4.75647 | 21451 ft | 421 kts | 169° |
| 2026-05-05 18:32 | 41.02422 | -4.74546 | 21949 ft | 426 kts | 169° |
| 2026-05-05 18:33 | 40.99562 | -4.73436 | 22438 ft | 431 kts | 169° |
| 2026-05-05 18:33 | 40.96666 | -4.72311 | 22926 ft | 436 kts | 170° |
| 2026-05-05 18:33 | 40.93737 | -4.71174 | 23413 ft | 441 kts | 171° |
| 2026-05-05 18:33 | 40.90780 | -4.70024 | 23847 ft | 445 kts | 171° |
| 2026-05-05 18:34 | 40.87801 | -4.68859 | 24291 ft | 448 kts | 171° |
| 2026-05-05 18:34 | 40.84807 | -4.67683 | 24748 ft | 449 kts | 171° |
| 2026-05-05 18:34 | 40.81810 | -4.66505 | 25205 ft | 451 kts | 171° |
| 2026-05-05 18:34 | 40.78794 | -4.65321 | 25658 ft | 453 kts | 171° |
| 2026-05-05 18:35 | 40.75771 | -4.64137 | 26113 ft | 454 kts | 171° |
| 2026-05-05 18:35 | 40.72737 | -4.62951 | 26560 ft | 455 kts | 171° |
| 2026-05-05 18:35 | 40.69697 | -4.61766 | 26991 ft | 457 kts | 171° |
| 2026-05-05 18:35 | 40.66646 | -4.60580 | 27413 ft | 458 kts | 171° |
| 2026-05-05 18:36 | 40.63583 | -4.59392 | 27841 ft | 460 kts | 171° |
| 2026-05-05 18:36 | 40.60514 | -4.58201 | 28281 ft | 461 kts | 171° |
| 2026-05-05 18:36 | 40.57432 | -4.57002 | 28687 ft | 462 kts | 171° |
| 2026-05-05 18:36 | 40.54344 | -4.55800 | 29051 ft | 464 kts | 171° |
| 2026-05-05 18:37 | 40.51247 | -4.54598 | 29463 ft | 465 kts | 171° |
| 2026-05-05 18:37 | 40.48134 | -4.53395 | 29873 ft | 467 kts | 171° |
| 2026-05-05 18:37 | 40.45011 | -4.52191 | 30236 ft | 469 kts | 171° |
| 2026-05-05 18:37 | 40.41920 | -4.51000 | 30539 ft | 470 kts | 171° |
| 2026-05-05 18:38 | 40.38771 | -4.49785 | 30820 ft | 473 kts | 171° |
| 2026-05-05 18:38 | 40.35624 | -4.48569 | 31275 ft | 470 kts | 171° |
| 2026-05-05 18:38 | 40.32491 | -4.47357 | 31740 ft | 468 kts | 171° |
| 2026-05-05 18:38 | 40.29371 | -4.46152 | 32203 ft | 466 kts | 171° |
| 2026-05-05 18:39 | 40.26266 | -4.44954 | 32682 ft | 464 kts | 171° |
| 2026-05-05 18:39 | 40.23169 | -4.43763 | 32905 ft | 464 kts | 171° |
| 2026-05-05 18:39 | 40.17046 | -4.41405 | 32945 ft | 455 kts | 171° |
| 2026-05-05 18:40 | 40.10985 | -4.39089 | 32944 ft | 453 kts | 171° |
| 2026-05-05 18:40 | 40.04932 | -4.36779 | 32939 ft | 453 kts | 171° |
| 2026-05-05 18:41 | 39.98870 | -4.34690 | 32939 ft | 445 kts | 179° |
| 2026-05-05 18:41 | 39.92836 | -4.34630 | 32939 ft | 426 kts | 196° |
| 2026-05-05 18:42 | 39.87005 | -4.35891 | 32929 ft | 425 kts | 197° |
| 2026-05-05 18:42 | 39.81171 | -4.37144 | 32937 ft | 425 kts | 197° |
| 2026-05-05 18:43 | 39.75339 | -4.38393 | 32938 ft | 425 kts | 197° |
| 2026-05-05 18:43 | 39.69508 | -4.39645 | 32937 ft | 425 kts | 197° |
| 2026-05-05 18:44 | 39.63680 | -4.40896 | 32943 ft | 424 kts | 197° |
| 2026-05-05 18:44 | 39.57858 | -4.42140 | 32944 ft | 424 kts | 197° |
| 2026-05-05 18:45 | 39.52034 | -4.43374 | 32945 ft | 424 kts | 197° |
| 2026-05-05 18:45 | 39.49122 | -4.43990 | 32810 ft | 424 kts | 197° |
| 2026-05-05 18:45 | 39.46220 | -4.44603 | 32454 ft | 420 kts | 197° |
| 2026-05-05 18:46 | 39.43387 | -4.45203 | 31915 ft | 416 kts | 197° |
| 2026-05-05 18:46 | 39.40541 | -4.45806 | 31389 ft | 413 kts | 197° |
| 2026-05-05 18:46 | 39.37715 | -4.46404 | 30857 ft | 410 kts | 197° |
| 2026-05-05 18:46 | 39.34912 | -4.46998 | 30333 ft | 407 kts | 197° |
| 2026-05-05 18:47 | 39.32123 | -4.47588 | 29770 ft | 405 kts | 197° |
| 2026-05-05 18:47 | 39.29353 | -4.48172 | 29229 ft | 401 kts | 197° |
| 2026-05-05 18:47 | 39.26608 | -4.48748 | 28698 ft | 398 kts | 197° |
| 2026-05-05 18:47 | 39.23890 | -4.49316 | 28180 ft | 394 kts | 197° |
| 2026-05-05 18:48 | 39.21192 | -4.49884 | 27641 ft | 392 kts | 197° |
| 2026-05-05 18:48 | 39.18503 | -4.50455 | 27117 ft | 390 kts | 197° |
| 2026-05-05 18:48 | 39.15827 | -4.51022 | 26594 ft | 389 kts | 197° |
| 2026-05-05 18:48 | 39.13158 | -4.51588 | 26077 ft | 388 kts | 197° |
| 2026-05-05 18:49 | 39.10496 | -4.52150 | 25573 ft | 387 kts | 197° |
| 2026-05-05 18:49 | 39.07841 | -4.52708 | 25073 ft | 386 kts | 197° |
| 2026-05-05 18:49 | 39.05187 | -4.53266 | 24591 ft | 386 kts | 196° |
| 2026-05-05 18:49 | 39.02538 | -4.53821 | 24115 ft | 385 kts | 196° |
| 2026-05-05 18:50 | 38.99893 | -4.54375 | 23656 ft | 385 kts | 196° |
| 2026-05-05 18:50 | 38.97249 | -4.54929 | 23142 ft | 384 kts | 196° |
| 2026-05-05 18:50 | 38.94617 | -4.55479 | 22686 ft | 382 kts | 196° |
| 2026-05-05 18:50 | 38.92005 | -4.56025 | 22225 ft | 379 kts | 195° |
| 2026-05-05 18:51 | 38.89410 | -4.56565 | 21760 ft | 377 kts | 195° |
| 2026-05-05 18:51 | 38.86833 | -4.57100 | 21301 ft | 374 kts | 195° |
| 2026-05-05 18:51 | 38.84272 | -4.57634 | 20812 ft | 372 kts | 195° |
| 2026-05-05 18:51 | 38.81762 | -4.58157 | 20337 ft | 369 kts | 195° |
| 2026-05-05 18:52 | 38.79232 | -4.58685 | 19838 ft | 367 kts | 195° |
| 2026-05-05 18:52 | 38.76715 | -4.59209 | 19351 ft | 366 kts | 195° |
| 2026-05-05 18:52 | 38.74208 | -4.59730 | 18836 ft | 365 kts | 195° |
| 2026-05-05 18:52 | 38.71706 | -4.60248 | 18335 ft | 364 kts | 195° |
| 2026-05-05 18:53 | 38.69208 | -4.60768 | 17764 ft | 363 kts | 195° |
| 2026-05-05 18:53 | 38.66720 | -4.61286 | 17253 ft | 361 kts | 194° |
| 2026-05-05 18:53 | 38.64250 | -4.61799 | 16748 ft | 359 kts | 194° |
| 2026-05-05 18:53 | 38.61794 | -4.62307 | 16238 ft | 356 kts | 194° |
| 2026-05-05 18:54 | 38.59350 | -4.62810 | 15734 ft | 355 kts | 194° |
| 2026-05-05 18:54 | 38.56921 | -4.63310 | 15230 ft | 353 kts | 194° |
| 2026-05-05 18:54 | 38.54503 | -4.63810 | 14733 ft | 351 kts | 194° |
| 2026-05-05 18:54 | 38.52093 | -4.64312 | 14224 ft | 351 kts | 194° |
| 2026-05-05 18:55 | 38.49689 | -4.64809 | 13712 ft | 350 kts | 194° |
| 2026-05-05 18:55 | 38.47292 | -4.65303 | 13173 ft | 348 kts | 193° |
| 2026-05-05 18:55 | 38.44915 | -4.65794 | 12671 ft | 345 kts | 193° |
| 2026-05-05 18:55 | 38.42556 | -4.66281 | 12178 ft | 342 kts | 193° |
| 2026-05-05 18:56 | 38.40216 | -4.66763 | 11690 ft | 340 kts | 193° |
| 2026-05-05 18:56 | 38.37891 | -4.67237 | 11199 ft | 337 kts | 192° |
| 2026-05-05 18:56 | 38.35585 | -4.67706 | 10714 ft | 335 kts | 192° |
| 2026-05-05 18:56 | 38.33298 | -4.68164 | 10316 ft | 330 kts | 190° |
| 2026-05-05 18:57 | 38.31068 | -4.68174 | 10181 ft | 311 kts | 176° |
| 2026-05-05 18:57 | 38.29017 | -4.67553 | 9867 ft | 299 kts | 162° |
| 2026-05-05 18:57 | 38.27134 | -4.66524 | 9593 ft | 295 kts | 159° |
| 2026-05-05 18:57 | 38.25261 | -4.65475 | 9459 ft | 294 kts | 159° |
| 2026-05-05 18:58 | 38.23400 | -4.64437 | 9182 ft | 291 kts | 159° |
| 2026-05-05 18:58 | 38.21622 | -4.63445 | 8813 ft | 291 kts | 159° |
| 2026-05-05 18:58 | 38.19763 | -4.62410 | 8410 ft | 292 kts | 159° |
| 2026-05-05 18:58 | 38.17843 | -4.61609 | 7997 ft | 290 kts | 173° |
| 2026-05-05 18:59 | 38.15850 | -4.61545 | 7595 ft | 286 kts | 191° |
| 2026-05-05 18:59 | 38.13897 | -4.61982 | 7203 ft | 285 kts | 193° |
| 2026-05-05 18:59 | 38.11942 | -4.62430 | 6795 ft | 286 kts | 193° |
| 2026-05-05 18:59 | 38.09990 | -4.62920 | 6445 ft | 285 kts | 199° |
| 2026-05-05 19:00 | 38.08240 | -4.64029 | 6058 ft | 281 kts | 219° |
| 2026-05-05 19:00 | 38.06684 | -4.65535 | 5661 ft | 282 kts | 220° |
| 2026-05-05 19:00 | 38.05127 | -4.67050 | 5269 ft | 282 kts | 220° |
| 2026-05-05 19:00 | 38.03564 | -4.68567 | 4874 ft | 281 kts | 220° |
| 2026-05-05 19:01 | 38.02038 | -4.70038 | 4484 ft | 270 kts | 220° |
| 2026-05-05 19:01 | 38.00560 | -4.71426 | 4111 ft | 260 kts | 218° |
| 2026-05-05 19:01 | 37.99092 | -4.72695 | 3763 ft | 250 kts | 216° |
| 2026-05-05 19:01 | 37.97668 | -4.73879 | 3423 ft | 239 kts | 216° |
| 2026-05-05 19:02 | 37.96324 | -4.74988 | 3097 ft | 219 kts | 216° |
| 2026-05-05 19:02 | 37.95095 | -4.76004 | 2801 ft | 204 kts | 217° |
| 2026-05-05 19:02 | 37.93961 | -4.76947 | 2552 ft | 187 kts | 217° |
| 2026-05-05 19:02 | 37.92921 | -4.77816 | 2275 ft | 172 kts | 217° |
| 2026-05-05 19:03 | 37.91966 | -4.78620 | 2066 ft | 158 kts | 217° |
| 2026-05-05 19:03 | 37.91093 | -4.79354 | 1842 ft | 146 kts | 218° |
| 2026-05-05 19:03 | 37.90262 | -4.80053 | 1637 ft | 144 kts | 217° |
| 2026-05-05 19:03 | 37.89494 | -4.80818 | 1466 ft | 139 kts | 229° |
| 2026-05-05 19:04 | 37.88755 | -4.81603 | 1249 ft | 137 kts | 217° |
| 2026-05-05 19:04 | 37.87944 | -4.82227 | 1009 ft | 137 kts | 211° |
| 2026-05-05 19:04 | 37.87104 | -4.82804 | 828 ft | 138 kts | 212° |
| 2026-05-05 19:04 | 37.86269 | -4.83417 | 646 ft | 138 kts | 214° |
| 2026-05-05 19:05 | 37.85422 | -4.84023 | 424 ft | 140 kts | 212° |
| 2026-05-05 19:05 | 37.84587 | -4.84619 | 305 ft | 129 kts | 211° |
| 2026-05-05 19:05 | 37.83953 | -4.85067 | 303 ft | 56 kts | 208° |
| 2026-05-05 19:05 | 37.83753 | -4.85195 | 306 ft | 21 kts | 194° |
| 2026-05-05 19:06 | 37.83692 | -4.85211 | 307 ft | 13 kts | 208° |
| 2026-05-05 19:06 | 37.83704 | -4.85237 | 308 ft | 5 kts | 34° |
| 2026-05-05 19:06 | 37.83727 | -4.85217 | 307 ft | 7 kts | 32° |
| 2026-05-05 19:06 | 37.83805 | -4.85159 | 304 ft | 13 kts | 31° |
| 2026-05-05 19:07 | 37.83896 | -4.85098 | 303 ft | 16 kts | 27° |
| 2026-05-05 19:07 | 37.83967 | -4.85051 | 303 ft | 18 kts | 28° |
| 2026-05-05 19:07 | 37.84081 | -4.84972 | 303 ft | 19 kts | 28° |
| 2026-05-05 19:07 | 37.84241 | -4.84859 | 304 ft | 21 kts | 28° |
| 2026-05-05 19:08 | 37.84322 | -4.84806 | 305 ft | 14 kts | 26° |
| 2026-05-05 19:08 | 37.84355 | -4.84720 | 306 ft | 10 kts | 114° |
| 2026-05-05 19:08 | 37.84331 | -4.84664 | 306 ft | 7 kts | 118° |
| 2026-05-05 19:08 | 37.84309 | -4.84609 | 306 ft | 7 kts | 107° |
| 2026-05-05 19:09 | 37.84338 | -4.84564 | 307 ft | 7 kts | 34° |
| 2026-05-05 19:09 | 37.84391 | -4.84527 | 307 ft | 10 kts | 29° |
| 2026-05-05 19:09 | 37.84410 | -4.84471 | 307 ft | 8 kts | 81° |
| 2026-05-05 19:09 | 37.84452 | -4.84447 | 307 ft | 8 kts | 1° |
| 2026-05-05 19:10 | 37.84500 | -4.84424 | 305 ft | 7 kts | 27° |
| 2026-05-05 19:10 | 37.84528 | -4.84415 | 305 ft | 0 kts | 322° |